Preview of NWS' New Version of Forecast
This preview is not operational and should not be used for support decisions.

Terminal Aerodrome Forecast (TAF)

Issued by National Weather Service (NWS)

                            
000
FTUS42 KMFL 161130
TAFMIA
TAF
KMIA 161130Z 1612/1718 33008KT P6SM SCT035 SCT250
     FM161500 35011KT P6SM SCT035 BKN250
     FM170100 34007KT P6SM FEW035 BKN150
     FM171400 03009KT P6SM SCT035=